SKRH/RCH METAR and TAF weather

Enter ICAO airport designator
Station Type Date Time Source
SKRH METAR 2018/12/13 22:00 UTC NOAA

SKRH 132200Z 09010KT 9999 FEW020 31/21 A2982


Station Type Date Time Source
SKRH Decoded METAR 2018/12/13 22:00 UTC NOAA

Riohacha / Almirante Padilla, Colombia (SKRH) 11-32N 072-56W 4M
Dec 13, 2018 - 05:00 PM EST / 2018.12.13 2200 UTC
Wind: from the E (090 degrees) at 12 MPH (10 KT):0
Visibility: greater than 7 mile(s):0
Sky conditions: mostly clear
Temperature: 87 F (31 C)
Dew Point: 69 F (21 C)
Relative Humidity: 55%
Pressure (altimeter): 29.82 in. Hg (1009 hPa)
ob: SKRH 132200Z 09010KT 9999 FEW020 31/21 A2982
cycle: 22

Station Type Date Time Source
SKRH TAF 2015/07/31 18:51 UTC NOAA

TAF SKRH 311700Z 3118/0118 07010KT 9999 SCT017
TEMPO 3120/0103 09015KT CAVOK
TEMPO 0109/0114 9000 BKN015 TX36/3118Z TN28/0110Z


Example: see airport list